createdAt,value
2018-12-06T00:00:52.650Z,59.46
2018-12-06T00:03:20.792Z,59.12
2018-12-06T00:05:49.702Z,59.64
2018-12-06T00:08:19.176Z,60.13
2018-12-06T00:10:47.728Z,61.57
2018-12-06T00:13:15.940Z,60.16
2018-12-06T00:15:44.187Z,61.47
2018-12-06T00:18:12.316Z,58.88
2018-12-06T00:20:40.488Z,59.50
2018-12-06T00:23:08.789Z,60.26
2018-12-06T00:25:37.018Z,60.80
2018-12-06T00:28:05.156Z,61.43
2018-12-06T00:30:39.428Z,60.69
2018-12-06T00:33:07.957Z,62.59
2018-12-06T00:35:36.251Z,63.69
2018-12-06T00:38:04.607Z,62.83
2018-12-06T00:40:32.834Z,60.95
2018-12-06T00:43:01.163Z,61.82
2018-12-06T00:45:29.340Z,61.72
2018-12-06T00:47:57.795Z,61.41
2018-12-06T00:50:25.960Z,61.44
2018-12-06T00:52:54.190Z,60.72
2018-12-06T00:55:22.422Z,60.97
2018-12-06T00:57:50.648Z,61.27
2018-12-06T01:00:18.992Z,61.02
2018-12-06T01:02:47.355Z,60.79
2018-12-06T01:05:15.826Z,61.34
2018-12-06T01:07:44.537Z,60.87
2018-12-06T01:10:13.424Z,62.09
2018-12-06T01:12:42.021Z,61.81
2018-12-06T01:15:10.371Z,61.76
2018-12-06T01:17:38.705Z,61.57
2018-12-06T01:20:08.534Z,61.92
2018-12-06T01:22:36.686Z,61.57
2018-12-06T01:25:06.317Z,60.96
2018-12-06T01:27:34.569Z,61.89
2018-12-06T01:30:03.568Z,62.37
2018-12-06T01:32:32.166Z,61.75
2018-12-06T01:35:00.524Z,61.08
2018-12-06T01:37:28.705Z,60.67
2018-12-06T01:39:57.084Z,61.96
2018-12-06T01:42:25.255Z,60.22
2018-12-06T01:44:53.569Z,60.78
2018-12-06T01:47:21.926Z,59.97
2018-12-06T01:49:50.161Z,60.43
2018-12-06T01:52:18.491Z,61.38
2018-12-06T01:54:46.852Z,61.39
2018-12-06T01:57:15.219Z,61.07
2018-12-06T01:59:43.597Z,61.01
2018-12-06T02:02:11.775Z,61.26
2018-12-06T02:04:39.910Z,62.11
2018-12-06T02:07:08.108Z,62.18
2018-12-06T02:09:36.432Z,62.82
2018-12-06T02:12:04.821Z,62.91
2018-12-06T02:14:32.951Z,62.79
2018-12-06T02:17:01.504Z,61.76
2018-12-06T02:19:29.636Z,61.58
2018-12-06T02:21:57.799Z,61.12
2018-12-06T02:24:26.575Z,61.57
2018-12-06T02:26:54.707Z,61.35
2018-12-06T02:29:25.069Z,62.16
2018-12-06T02:31:53.324Z,62.63
2018-12-06T02:34:21.469Z,61.40
2018-12-06T02:36:49.739Z,61.77
2018-12-06T02:39:18.057Z,61.86
2018-12-06T02:41:46.473Z,61.97
2018-12-06T02:44:14.754Z,62.16
2018-12-06T02:46:43.154Z,62.49
2018-12-06T02:49:11.291Z,62.03
2018-12-06T02:51:39.447Z,60.94
2018-12-06T02:54:07.906Z,62.20
2018-12-06T02:56:36.073Z,62.89
2018-12-06T02:59:04.421Z,61.93
2018-12-06T03:01:32.561Z,61.19
2018-12-06T03:04:00.733Z,62.50
2018-12-06T03:06:28.884Z,63.63
2018-12-06T03:08:57.011Z,62.77
2018-12-06T03:11:25.347Z,63.21
2018-12-06T03:13:53.463Z,62.98
2018-12-06T03:16:21.781Z,61.87
2018-12-06T03:18:50.290Z,61.78
2018-12-06T03:21:19.600Z,61.73
2018-12-06T03:23:47.895Z,61.56
2018-12-06T03:26:16.010Z,61.31
2018-12-06T03:28:44.326Z,60.80
2018-12-06T03:31:12.596Z,60.09
2018-12-06T03:33:41.082Z,60.31
2018-12-06T03:36:09.252Z,60.63
2018-12-06T03:38:37.410Z,61.43
2018-12-06T03:41:06.287Z,60.37
2018-12-06T03:43:34.435Z,59.99
2018-12-06T03:46:02.731Z,59.96
2018-12-06T03:48:31.612Z,59.46
2018-12-06T03:50:59.834Z,58.96
2018-12-06T03:53:28.939Z,59.36
2018-12-06T03:55:57.317Z,59.79
2018-12-06T03:58:25.455Z,59.79
2018-12-06T04:00:53.671Z,59.44
2018-12-06T04:03:21.936Z,58.90
2018-12-06T04:05:50.420Z,59.30
2018-12-06T04:08:18.515Z,58.79
2018-12-06T04:10:46.915Z,59.21
2018-12-06T04:13:15.246Z,58.79
2018-12-06T04:15:43.364Z,59.32
2018-12-06T04:18:11.527Z,58.75
2018-12-06T04:20:39.972Z,57.84
2018-12-06T04:23:08.065Z,57.99
2018-12-06T04:25:36.402Z,57.74
2018-12-06T04:28:04.562Z,57.20
2018-12-06T04:30:32.981Z,56.96
2018-12-06T04:33:01.138Z,57.07
2018-12-06T04:35:29.350Z,56.50
2018-12-06T04:37:57.505Z,55.35
2018-12-06T04:40:25.841Z,55.24
2018-12-06T04:42:54.048Z,55.26
2018-12-06T04:45:22.346Z,55.12
2018-12-06T04:47:50.571Z,55.71
2018-12-06T04:50:18.723Z,55.04
2018-12-06T04:52:47.162Z,55.83
2018-12-06T04:55:15.488Z,55.31
2018-12-06T04:57:43.965Z,55.84
2018-12-06T05:00:12.311Z,55.34
2018-12-06T05:02:40.499Z,55.53
2018-12-06T05:05:09.003Z,55.70
2018-12-06T05:07:37.329Z,56.31
2018-12-06T05:10:06.054Z,56.29
2018-12-06T05:12:34.403Z,56.94
2018-12-06T05:15:02.672Z,57.64
2018-12-06T05:17:31.154Z,57.52
2018-12-06T05:19:59.323Z,56.06
2018-12-06T05:22:27.671Z,56.29
2018-12-06T05:24:56.342Z,56.70
2018-12-06T05:27:25.319Z,56.06
2018-12-06T05:29:53.485Z,56.80
2018-12-06T05:32:21.876Z,57.06
2018-12-06T05:34:50.070Z,57.26
2018-12-06T05:37:18.221Z,57.69
2018-12-06T05:39:46.647Z,57.50
2018-12-06T05:42:14.947Z,57.91
2018-12-06T05:44:43.480Z,57.48
2018-12-06T05:47:11.797Z,57.84
2018-12-06T05:49:40.031Z,57.77
2018-12-06T05:52:08.181Z,57.88
2018-12-06T05:54:36.351Z,57.64
2018-12-06T05:57:04.663Z,57.63
2018-12-06T05:59:33.201Z,58.74
2018-12-06T06:02:02.203Z,58.08
2018-12-06T06:04:30.338Z,57.96
2018-12-06T06:07:01.157Z,59.07
2018-12-06T06:09:30.310Z,59.06
2018-12-06T06:11:58.610Z,59.26
2018-12-06T06:14:26.805Z,58.87
2018-12-06T06:16:55.117Z,59.13
2018-12-06T06:19:23.375Z,59.27
2018-12-06T06:21:51.633Z,59.44
2018-12-06T06:24:19.844Z,59.44
2018-12-06T06:26:48.223Z,59.56
2018-12-06T06:29:16.573Z,59.86
2018-12-06T06:31:59.496Z,59.55
2018-12-06T06:34:27.623Z,59.48
2018-12-06T06:36:56.024Z,59.38
2018-12-06T06:39:24.242Z,59.84
2018-12-06T06:41:52.547Z,60.00
2018-12-06T06:44:20.741Z,60.24
2018-12-06T06:46:49.086Z,59.96
2018-12-06T06:49:17.250Z,60.00
2018-12-06T06:51:45.488Z,59.61
2018-12-06T06:54:13.769Z,60.07
2018-12-06T06:56:41.971Z,59.97
2018-12-06T06:59:10.130Z,59.74
2018-12-06T07:01:38.310Z,60.40
2018-12-06T07:04:06.439Z,60.38
2018-12-06T07:06:34.742Z,60.03
2018-12-06T07:09:05.168Z,61.25
2018-12-06T07:11:33.305Z,61.15
2018-12-06T07:14:01.582Z,60.90
2018-12-06T07:16:29.987Z,61.37
2018-12-06T07:18:58.203Z,60.98
2018-12-06T07:21:26.389Z,61.17
2018-12-06T07:23:54.585Z,61.65
2018-12-06T07:26:26.334Z,61.31
2018-12-06T07:28:55.171Z,62.06
2018-12-06T07:31:23.367Z,60.85
2018-12-06T07:33:51.968Z,61.52
2018-12-06T07:36:20.137Z,62.23
2018-12-06T07:38:48.331Z,62.13
2018-12-06T07:41:16.515Z,61.95
2018-12-06T07:43:44.692Z,62.15
2018-12-06T07:46:12.912Z,62.25
2018-12-06T07:48:41.141Z,62.10
2018-12-06T07:51:09.513Z,62.34
2018-12-06T07:53:37.668Z,63.20
2018-12-06T07:56:05.903Z,62.90
2018-12-06T07:58:39.243Z,62.97
2018-12-06T08:01:07.425Z,63.10
2018-12-06T08:03:38.348Z,63.11
2018-12-06T08:06:06.623Z,62.94
2018-12-06T08:08:36.185Z,62.92
2018-12-06T08:11:04.650Z,62.93
2018-12-06T08:13:39.607Z,63.66
2018-12-06T08:16:07.824Z,63.27
2018-12-06T08:18:36.039Z,63.47
2018-12-06T08:21:11.711Z,63.75
2018-12-06T08:23:41.021Z,64.51
2018-12-06T08:26:14.735Z,64.64
2018-12-06T08:28:44.231Z,64.23
2018-12-06T08:31:12.741Z,64.14
2018-12-06T08:33:44.317Z,64.54
2018-12-06T08:36:12.540Z,64.75
2018-12-06T08:38:42.436Z,65.02
2018-12-06T08:41:10.672Z,65.38
2018-12-06T08:43:39.092Z,65.21
2018-12-06T08:46:07.734Z,65.20
2018-12-06T08:48:36.355Z,64.62
2018-12-06T08:51:04.765Z,64.09
2018-12-06T08:53:33.001Z,64.31
2018-12-06T08:56:01.401Z,64.33
2018-12-06T08:58:34.396Z,64.48
2018-12-06T09:01:02.634Z,65.79
2018-12-06T09:03:30.829Z,65.18
2018-12-06T09:05:59.096Z,64.31
2018-12-06T09:08:27.344Z,62.65
2018-12-06T09:10:56.036Z,61.61
2018-12-06T09:13:24.292Z,60.95
2018-12-06T09:15:52.842Z,61.18
2018-12-06T09:18:21.662Z,59.18
2018-12-06T09:20:50.348Z,55.64
2018-12-06T09:23:18.808Z,47.38
2018-12-06T09:25:48.809Z,44.20
2018-12-06T09:28:19.424Z,48.92
2018-12-06T09:30:48.289Z,50.22
2018-12-06T09:33:16.464Z,50.44
2018-12-06T09:35:45.460Z,52.22
2018-12-06T09:38:14.787Z,47.93
2018-12-06T09:40:43.334Z,44.05
2018-12-06T09:43:11.596Z,40.60
2018-12-06T09:45:43.776Z,41.52
2018-12-06T09:48:11.955Z,45.26
2018-12-06T09:50:41.924Z,49.04
2018-12-06T09:53:10.832Z,49.19
2018-12-06T09:55:39.453Z,50.32
2018-12-06T09:58:08.628Z,51.64
2018-12-06T10:00:36.824Z,53.55
2018-12-06T10:03:05.212Z,54.59
2018-12-06T10:05:33.437Z,56.61
2018-12-06T10:08:01.765Z,57.32
2018-12-06T10:10:30.115Z,58.79
2018-12-06T10:12:58.305Z,60.48
2018-12-06T10:15:26.610Z,61.85
2018-12-06T10:17:55.556Z,61.39
2018-12-06T10:20:23.705Z,62.15
2018-12-06T10:22:51.949Z,62.29
2018-12-06T10:25:20.327Z,63.92
2018-12-06T10:27:48.796Z,65.01
2018-12-06T10:30:19.118Z,63.76
2018-12-06T10:32:47.850Z,63.41
2018-12-06T10:35:17.884Z,62.74
2018-12-06T10:37:46.512Z,62.82
2018-12-06T10:40:15.493Z,63.57
2018-12-06T10:42:44.290Z,63.38
2018-12-06T10:45:13.375Z,63.71
2018-12-06T10:47:41.751Z,63.27
2018-12-06T10:50:10.162Z,64.37
2018-12-06T10:52:43.068Z,64.05
2018-12-06T10:55:11.412Z,64.55
2018-12-06T10:57:39.858Z,63.61
2018-12-06T11:00:16.140Z,63.89
2018-12-06T11:02:48.701Z,62.83
2018-12-06T11:05:17.532Z,63.72
2018-12-06T11:07:45.877Z,63.24
2018-12-06T11:10:14.145Z,62.63
2018-12-06T11:12:42.866Z,63.51
2018-12-06T11:15:11.246Z,64.36
2018-12-06T11:17:43.645Z,63.20
2018-12-06T11:20:11.865Z,62.81
2018-12-06T11:22:41.299Z,62.79
2018-12-06T11:25:14.058Z,62.77
2018-12-06T11:27:42.475Z,63.24
2018-12-06T11:30:11.493Z,64.24
2018-12-06T11:32:39.935Z,64.66
2018-12-06T11:35:08.309Z,64.24
2018-12-06T11:37:36.727Z,63.84
2018-12-06T11:40:05.653Z,64.51
2018-12-06T11:42:38.413Z,64.55
2018-12-06T11:45:08.334Z,64.92
2018-12-06T11:47:36.992Z,64.71
2018-12-06T11:50:06.899Z,65.46
2018-12-06T11:52:35.331Z,66.07
2018-12-06T11:55:03.706Z,66.73
2018-12-06T11:57:32.059Z,65.76
2018-12-06T12:00:00.401Z,66.74
2018-12-06T12:02:33.434Z,65.99
2018-12-06T12:05:01.599Z,65.03
2018-12-06T12:07:29.781Z,65.25
2018-12-06T12:09:57.933Z,64.70
2018-12-06T12:12:29.038Z,64.98
2018-12-06T12:14:57.251Z,64.58
2018-12-06T12:17:25.748Z,64.60
2018-12-06T12:19:54.104Z,63.36
2018-12-06T12:22:22.304Z,64.54
2018-12-06T12:24:50.553Z,64.02
2018-12-06T12:27:18.801Z,63.84
2018-12-06T12:29:47.268Z,63.92
2018-12-06T12:32:15.468Z,63.98
2018-12-06T12:34:43.717Z,64.51
2018-12-06T12:37:12.556Z,64.47
2018-12-06T12:39:40.908Z,64.50
2018-12-06T12:42:09.652Z,64.15
2018-12-06T12:44:37.884Z,64.51
2018-12-06T12:47:11.642Z,65.68
2018-12-06T12:49:39.925Z,65.34
2018-12-06T12:52:08.145Z,66.34
2018-12-06T12:54:42.002Z,67.17
2018-12-06T12:59:59.675Z,68.00
2018-12-06T13:02:28.789Z,67.67
2018-12-06T13:04:57.705Z,67.93
2018-12-06T13:07:27.374Z,69.27
2018-12-06T13:10:03.935Z,69.60
2018-12-06T13:12:33.446Z,70.13
2018-12-06T13:15:01.981Z,69.21
2018-12-06T13:17:30.842Z,70.27
2018-12-06T13:19:59.491Z,71.03
2018-12-06T13:22:29.989Z,70.76
2018-12-06T13:24:59.642Z,71.53
2018-12-06T13:27:28.385Z,71.46
2018-12-06T13:29:56.710Z,71.44
2018-12-06T13:32:29.301Z,72.60
2018-12-06T13:35:11.107Z,73.18
2018-12-06T13:37:40.715Z,72.57
2018-12-06T13:40:09.700Z,71.71
2018-12-06T13:42:38.141Z,72.55
2018-12-06T13:45:08.675Z,72.57
2018-12-06T13:47:37.377Z,73.16
2018-12-06T13:50:06.271Z,72.62
2018-12-06T13:52:34.905Z,73.36
2018-12-06T13:55:03.705Z,73.13
2018-12-06T13:57:33.121Z,74.42
2018-12-06T14:00:01.855Z,73.27
2018-12-06T14:02:30.207Z,73.39
2018-12-06T14:04:58.556Z,72.84
2018-12-06T14:07:30.860Z,73.48
2018-12-06T14:10:02.864Z,74.56
2018-12-06T14:12:31.486Z,73.80
2018-12-06T14:15:00.062Z,73.49
2018-12-06T14:17:33.136Z,73.75
2018-12-06T14:20:01.778Z,74.37
2018-12-06T14:22:31.996Z,75.30
2018-12-06T14:25:01.296Z,74.93
2018-12-06T14:27:29.787Z,74.29
2018-12-06T14:29:59.899Z,74.84
2018-12-06T14:32:28.341Z,74.55
2018-12-06T14:35:00.468Z,74.37
2018-12-06T14:37:31.732Z,74.99
2018-12-06T14:40:08.760Z,75.11
2018-12-06T14:45:30.902Z,75.21
2018-12-06T14:47:59.094Z,75.10
2018-12-06T14:50:29.628Z,75.37
2018-12-06T14:52:57.883Z,76.37
2018-12-06T14:55:26.092Z,76.65
2018-12-06T14:57:54.306Z,76.37
2018-12-06T15:00:22.653Z,75.98
2018-12-06T15:02:50.843Z,75.80
2018-12-06T15:05:20.277Z,75.80
2018-12-06T15:07:50.858Z,75.12
2018-12-06T15:10:19.199Z,76.08
2018-12-06T15:12:47.374Z,76.08
2018-12-06T15:15:16.593Z,75.89
2018-12-06T15:17:44.855Z,75.37
2018-12-06T15:20:13.192Z,75.71
2018-12-06T15:22:43.861Z,75.91
2018-12-06T15:25:13.179Z,75.20
2018-12-06T15:27:41.490Z,75.98
2018-12-06T15:30:10.393Z,76.37
2018-12-06T15:32:38.787Z,76.40
2018-12-06T15:35:08.328Z,76.31
2018-12-06T15:37:37.199Z,76.20
2018-12-06T15:40:06.327Z,76.35
2018-12-06T15:42:34.469Z,76.40
2018-12-06T15:45:02.886Z,76.38
2018-12-06T15:47:31.510Z,76.18
2018-12-06T15:49:59.731Z,76.31
2018-12-06T15:52:27.933Z,76.89
2018-12-06T15:54:56.363Z,76.51
2018-12-06T15:57:25.428Z,76.77
2018-12-06T15:59:53.717Z,76.76
2018-12-06T16:02:24.420Z,77.16
2018-12-06T16:04:52.617Z,76.33
2018-12-06T16:07:20.817Z,76.60
2018-12-06T16:09:49.121Z,76.08
2018-12-06T16:12:17.824Z,76.66
2018-12-06T16:14:46.299Z,77.04
2018-12-06T16:17:14.488Z,77.32
2018-12-06T16:19:42.702Z,76.57
2018-12-06T16:22:10.883Z,76.81
2018-12-06T16:24:39.086Z,76.39
2018-12-06T16:27:07.303Z,77.40
2018-12-06T16:29:36.237Z,77.38
2018-12-06T16:32:04.497Z,77.94
2018-12-06T16:34:32.814Z,78.19
2018-12-06T16:37:01.428Z,77.94
2018-12-06T16:39:29.774Z,78.73
2018-12-06T16:41:57.980Z,78.71
2018-12-06T16:44:26.204Z,78.84
2018-12-06T16:46:54.423Z,78.86
2018-12-06T16:49:22.693Z,79.14
2018-12-06T16:51:55.422Z,79.39
2018-12-06T16:54:23.660Z,80.17
2018-12-06T16:56:51.842Z,80.71
2018-12-06T16:59:20.043Z,80.32
2018-12-06T17:01:48.328Z,80.77
2018-12-06T17:04:16.600Z,81.41
2018-12-06T17:06:44.831Z,82.06
2018-12-06T17:09:13.049Z,82.19
2018-12-06T17:11:41.603Z,81.54
2018-12-06T17:14:10.661Z,81.45
2018-12-06T17:16:39.898Z,82.09
2018-12-06T17:19:08.142Z,81.78
2018-12-06T17:21:37.222Z,82.28
2018-12-06T17:24:05.466Z,82.28
2018-12-06T17:26:33.657Z,82.09
2018-12-06T17:29:02.939Z,82.73
2018-12-06T17:31:31.318Z,82.26
2018-12-06T17:33:59.861Z,81.74
2018-12-06T17:36:28.753Z,81.57
2018-12-06T17:38:56.981Z,81.55
2018-12-06T17:41:25.249Z,81.58
2018-12-06T17:43:53.675Z,82.05
2018-12-06T17:46:23.287Z,81.72
2018-12-06T17:48:51.932Z,80.69
2018-12-06T17:51:20.145Z,81.17
2018-12-06T17:53:52.377Z,81.26
2018-12-06T17:56:19.809Z,80.90
2018-12-06T17:58:48.974Z,81.29
2018-12-06T18:01:17.230Z,80.52
2018-12-06T18:03:45.481Z,80.78
2018-12-06T18:06:13.694Z,81.30
2018-12-06T18:08:41.979Z,81.99
2018-12-06T18:11:10.476Z,81.31
2018-12-06T18:13:39.001Z,81.53
2018-12-06T18:16:07.535Z,81.87
2018-12-06T18:18:40.315Z,81.82
2018-12-06T18:21:08.243Z,81.86
2018-12-06T18:23:36.750Z,81.36
2018-12-06T18:26:05.052Z,81.95
2018-12-06T18:28:33.342Z,81.12
2018-12-06T18:31:01.620Z,81.48
2018-12-06T18:33:30.004Z,81.90
2018-12-06T18:35:59.224Z,82.28
2018-12-06T18:38:27.863Z,82.21
2018-12-06T18:40:58.280Z,82.60
2018-12-06T18:43:26.639Z,82.06
2018-12-06T18:45:55.730Z,82.29
2018-12-06T18:48:24.058Z,81.58
2018-12-06T18:50:53.108Z,82.35
2018-12-06T18:53:21.681Z,82.22
2018-12-06T18:55:50.003Z,81.37
2018-12-06T18:58:18.290Z,81.37
2018-12-06T19:00:46.560Z,81.61
2018-12-06T19:03:14.901Z,80.95
2018-12-06T19:05:43.380Z,80.83
2018-12-06T19:08:13.293Z,80.11
2018-12-06T19:10:41.664Z,80.39
2018-12-06T19:13:10.064Z,80.08
2018-12-06T19:15:38.357Z,80.20
2018-12-06T19:18:06.742Z,81.16
2018-12-06T19:20:45.482Z,80.20
2018-12-06T19:23:13.840Z,79.23
2018-12-06T19:25:42.167Z,79.03
2018-12-06T19:28:11.801Z,79.30
2018-12-06T19:30:40.054Z,79.57
2018-12-06T19:33:08.149Z,80.62
2018-12-06T19:35:36.502Z,80.27
2018-12-06T19:38:05.503Z,79.85
2018-12-06T19:40:34.587Z,80.65
2018-12-06T19:43:02.895Z,79.88
2018-12-06T19:45:31.190Z,80.16
2018-12-06T19:47:59.444Z,81.12
2018-12-06T19:50:27.623Z,81.47
2018-12-06T19:52:57.157Z,80.84
2018-12-06T19:55:26.193Z,80.44
2018-12-06T19:57:54.522Z,81.08
2018-12-06T20:00:22.821Z,82.07
2018-12-06T20:02:51.138Z,82.00
2018-12-06T20:05:19.521Z,82.76
2018-12-06T20:07:47.754Z,81.92
2018-12-06T20:10:16.126Z,82.40
2018-12-06T20:12:44.450Z,82.13
2018-12-06T20:15:12.964Z,81.66
2018-12-06T20:17:41.225Z,82.05
2018-12-06T20:20:10.309Z,81.55
2018-12-06T20:22:39.004Z,81.44
2018-12-06T20:25:07.563Z,81.71
2018-12-06T20:27:36.444Z,81.81
2018-12-06T20:30:05.855Z,81.67
2018-12-06T20:32:34.228Z,81.64
2018-12-06T20:35:04.479Z,80.82
2018-12-06T20:37:36.004Z,81.43
2018-12-06T20:40:05.268Z,81.63
2018-12-06T20:42:33.886Z,81.02
2018-12-06T20:45:02.274Z,81.14
2018-12-06T20:47:30.962Z,81.75
2018-12-06T20:49:59.398Z,81.80
2018-12-06T20:52:30.865Z,83.04
2018-12-06T20:54:59.148Z,82.47
2018-12-06T20:57:27.482Z,82.44
2018-12-06T20:59:57.356Z,82.30
2018-12-06T21:02:25.975Z,81.94
2018-12-06T21:04:54.302Z,82.43
2018-12-06T21:07:23.294Z,81.48
2018-12-06T21:09:52.066Z,80.93
2018-12-06T21:12:20.417Z,81.56
2018-12-06T21:14:48.644Z,81.68
2018-12-06T21:17:16.950Z,81.68
2018-12-06T21:19:45.314Z,81.84
2018-12-06T21:22:13.686Z,81.29
2018-12-06T21:24:41.973Z,80.73
2018-12-06T21:27:10.183Z,80.78
2018-12-06T21:29:38.483Z,80.50
2018-12-06T21:32:07.614Z,80.08
2018-12-06T21:34:35.861Z,80.29
2018-12-06T21:37:04.189Z,81.02
2018-12-06T21:39:33.364Z,80.17
2018-12-06T21:42:01.618Z,79.24
2018-12-06T21:44:30.029Z,79.31
2018-12-06T21:46:58.375Z,79.74
2018-12-06T21:49:26.654Z,79.18
2018-12-06T21:51:55.247Z,79.79
2018-12-06T21:54:23.534Z,79.69
2018-12-06T21:56:51.807Z,79.91
2018-12-06T21:59:20.985Z,79.83
2018-12-06T22:01:51.909Z,78.99
2018-12-06T22:04:20.204Z,79.07
2018-12-06T22:06:49.119Z,79.07
2018-12-06T22:09:17.496Z,78.20
2018-12-06T22:11:45.748Z,77.75
2018-12-06T22:14:14.163Z,77.22
2018-12-06T22:16:42.658Z,78.21
2018-12-06T22:19:11.663Z,78.34
2018-12-06T22:21:40.009Z,78.69
2018-12-06T22:24:08.276Z,77.98
2018-12-06T22:26:36.595Z,78.72
2018-12-06T22:29:05.088Z,78.57
2018-12-06T22:31:33.399Z,77.69
2018-12-06T22:34:01.696Z,78.82
2018-12-06T22:36:29.921Z,77.97
2018-12-06T22:38:58.179Z,78.99
2018-12-06T22:41:26.447Z,78.24
2018-12-06T22:43:54.671Z,78.34
2018-12-06T22:46:23.025Z,78.11
2018-12-06T22:48:51.278Z,79.48
2018-12-06T22:51:24.233Z,78.85
2018-12-06T22:53:49.825Z,78.64
2018-12-06T22:56:18.109Z,78.01
2018-12-06T22:58:46.423Z,78.79
2018-12-06T23:01:17.235Z,79.23
2018-12-06T23:03:45.431Z,79.17
2018-12-06T23:06:14.008Z,78.94
2018-12-06T23:08:42.179Z,78.27
2018-12-06T23:11:10.425Z,78.90
2018-12-06T23:13:39.355Z,78.29
2018-12-06T23:16:08.956Z,79.10
2018-12-06T23:18:37.107Z,78.00
2018-12-06T23:21:05.283Z,78.26
2018-12-06T23:23:33.709Z,78.59
2018-12-06T23:26:02.102Z,78.49
2018-12-06T23:28:30.404Z,77.68
2018-12-06T23:30:58.523Z,78.15
2018-12-06T23:33:31.902Z,78.03
2018-12-06T23:35:57.033Z,78.24
2018-12-06T23:38:25.448Z,77.34
2018-12-06T23:40:53.655Z,77.19
2018-12-06T23:43:21.967Z,76.89
2018-12-06T23:45:50.296Z,76.60
2018-12-06T23:48:18.458Z,76.99
2018-12-06T23:50:46.653Z,77.01
2018-12-06T23:53:14.851Z,77.82
2018-12-06T23:55:43.009Z,76.15
2018-12-06T23:58:11.188Z,76.88
